Brimhall, New Mexico
Current Conditions -  °F | °C
As of 3:53 PM on Thursday 23 Oct 2014 (Local Time) from KGUP Reporting Station
Clear Clear  
Wind Chill: 71°   Ceiling: Unl
Heat Index: 71°   Visibility: 10mi
Dew Point: 31°   Wind: 3mph
Humidity: 23%   Direction: NA
Pressure: 30.27"   Gusts: NA
Location:  35.78°N, 108.62°W
Report Text: KGUP 232153Z AUTO VRB03KT 10SM CLR 22/M01 A3027 RMK AO2 SLP154 T02171006
Loading
Personal Weather Stations






























Interactive Weather Map
Tropical Storm Tracking
New forecast layout! Learn more

10-Day Weather Forecast

Advertisements
Track Severe Weather on mobile